sensor_id;sensor_type;location;lat;lon;timestamp;pressure;altitude;pressure_sealevel;temperature;humidity
12722;BME280;6425;50.316;8.114;2023-04-26T00:00:00;992;;;2.6;81.8
12722;BME280;6425;50.316;8.114;2023-04-26T00:03:00;992;;;2.5;82.5
12722;BME280;6425;50.316;8.114;2023-04-26T00:06:00;992;;;2.7;81.9
12722;BME280;6425;50.316;8.114;2023-04-26T00:09:00;992;;;2.9;81.2
12722;BME280;6425;50.316;8.114;2023-04-26T00:12:00;992;;;2.9;80.3
12722;BME280;6425;50.316;8.114;2023-04-26T00:15:00;992;;;3;79.6
12722;BME280;6425;50.316;8.114;2023-04-26T00:18:00;992;;;2.9;79.1
12722;BME280;6425;50.316;8.114;2023-04-26T00:21:00;992;;;2.9;78.9
12722;BME280;6425;50.316;8.114;2023-04-26T00:24:00;992;;;2.7;79.7
12722;BME280;6425;50.316;8.114;2023-04-26T00:27:00;992;;;2.5;80.9
12722;BME280;6425;50.316;8.114;2023-04-26T00:30:00;992;;;2.5;80.9
12722;BME280;6425;50.316;8.114;2023-04-26T00:33:00;992;;;2.5;80.4
12722;BME280;6425;50.316;8.114;2023-04-26T00:36:00;992;;;2.3;81.1
12722;BME280;6425;50.316;8.114;2023-04-26T00:39:00;992;;;2.2;81.7
12722;BME280;6425;50.316;8.114;2023-04-26T00:42:00;992;;;2.1;82.9
12722;BME280;6425;50.316;8.114;2023-04-26T00:45:00;992;;;1.8;83.4
12722;BME280;6425;50.316;8.114;2023-04-26T00:48:00;992;;;2;83.6
12722;BME280;6425;50.316;8.114;2023-04-26T00:51:00;992;;;2;84.3
12722;BME280;6425;50.316;8.114;2023-04-26T00:54:00;992;;;2;83.6
12722;BME280;6425;50.316;8.114;2023-04-26T00:57:00;992;;;2.3;82.7
12722;BME280;6425;50.316;8.114;2023-04-26T01:00:00;992;;;2.4;81.3
12722;BME280;6425;50.316;8.114;2023-04-26T01:03:00;992;;;2.5;80.9
12722;BME280;6425;50.316;8.114;2023-04-26T01:06:00;992;;;2.5;80.1
12722;BME280;6425;50.316;8.114;2023-04-26T01:09:01;992;;;2.5;80
12722;BME280;6425;50.316;8.114;2023-04-26T01:12:00;992;;;2.6;79.6
12722;BME280;6425;50.316;8.114;2023-04-26T01:15:00;992;;;2.3;79.9
12722;BME280;6425;50.316;8.114;2023-04-26T01:18:00;992;;;1.8;82.1
12722;BME280;6425;50.316;8.114;2023-04-26T01:21:00;992;;;1.9;83.1
12722;BME280;6425;50.316;8.114;2023-04-26T01:24:00;992;;;2;83.4
12722;BME280;6425;50.316;8.114;2023-04-26T01:27:00;992;;;2;82.8
12722;BME280;6425;50.316;8.114;2023-04-26T01:30:00;992;;;1.9;82.8
12722;BME280;6425;50.316;8.114;2023-04-26T01:33:00;992;;;1.5;84.3
12722;BME280;6425;50.316;8.114;2023-04-26T01:36:00;992;;;1.6;84.8
12722;BME280;6425;50.316;8.114;2023-04-26T01:39:00;992;;;2;84.1
12722;BME280;6425;50.316;8.114;2023-04-26T01:42:00;992;;;2.2;82.5
12722;BME280;6425;50.316;8.114;2023-04-26T01:45:00;992;;;2.2;82
12722;BME280;6425;50.316;8.114;2023-04-26T01:48:00;992;;;2.2;81.7
12722;BME280;6425;50.316;8.114;2023-04-26T01:51:00;992;;;2.2;80.1
12722;BME280;6425;50.316;8.114;2023-04-26T01:54:00;992;;;1.8;80.8
12722;BME280;6425;50.316;8.114;2023-04-26T01:57:00;992;;;1.7;81.9
12722;BME280;6425;50.316;8.114;2023-04-26T02:00:00;992;;;1.6;82.9
12722;BME280;6425;50.316;8.114;2023-04-26T02:03:00;992;;;1.8;81.9
12722;BME280;6425;50.316;8.114;2023-04-26T02:06:00;992;;;1.9;81.4
12722;BME280;6425;50.316;8.114;2023-04-26T02:09:00;992;;;1.8;81.5
12722;BME280;6425;50.316;8.114;2023-04-26T02:12:00;992;;;1.7;82.1
12722;BME280;6425;50.316;8.114;2023-04-26T02:15:00;992;;;1.8;81.9
12722;BME280;6425;50.316;8.114;2023-04-26T02:18:00;992;;;1.7;82.2
12722;BME280;6425;50.316;8.114;2023-04-26T02:21:00;992;;;1.4;83.1
12722;BME280;6425;50.316;8.114;2023-04-26T02:24:00;992;;;1.3;83.8
12722;BME280;6425;50.316;8.114;2023-04-26T02:27:00;992;;;1.1;84.6
12722;BME280;6425;50.316;8.114;2023-04-26T02:30:00;992;;;0.9;86.2
12722;BME280;6425;50.316;8.114;2023-04-26T02:33:00;992;;;1;86.9
12722;BME280;6425;50.316;8.114;2023-04-26T02:36:01;992;;;1.2;86.6
12722;BME280;6425;50.316;8.114;2023-04-26T02:39:00;992;;;1.4;86
12722;BME280;6425;50.316;8.114;2023-04-26T02:42:00;992;;;1.5;84.6
12722;BME280;6425;50.316;8.114;2023-04-26T02:45:00;992;;;1.5;84.2
12722;BME280;6425;50.316;8.114;2023-04-26T02:48:00;992;;;1.5;83.8
12722;BME280;6425;50.316;8.114;2023-04-26T02:51:00;992;;;1.5;83.9
12722;BME280;6425;50.316;8.114;2023-04-26T02:54:00;992;;;1.3;83.5
12722;BME280;6425;50.316;8.114;2023-04-26T02:57:00;992;;;0.3;86.3
12722;BME280;6425;50.316;8.114;2023-04-26T03:00:00;992;;;0.4;87.9
12722;BME280;6425;50.316;8.114;2023-04-26T03:03:00;992;;;0.9;86.9
12722;BME280;6425;50.316;8.114;2023-04-26T03:06:00;992;;;1;86
12722;BME280;6425;50.316;8.114;2023-04-26T03:09:00;992;;;1.1;85.2
12722;BME280;6425;50.316;8.114;2023-04-26T03:12:00;992;;;1.1;85.2
12722;BME280;6425;50.316;8.114;2023-04-26T03:15:00;992;;;1.4;84.3
12722;BME280;6425;50.316;8.114;2023-04-26T03:18:00;992;;;1.5;83.5
12722;BME280;6425;50.316;8.114;2023-04-26T03:21:00;992;;;1.4;83.2
12722;BME280;6425;50.316;8.114;2023-04-26T03:24:00;992;;;1.4;82.6
12722;BME280;6425;50.316;8.114;2023-04-26T03:27:00;992;;;1.4;82.7
12722;BME280;6425;50.316;8.114;2023-04-26T03:30:00;992;;;1;82.5
12722;BME280;6425;50.316;8.114;2023-04-26T03:33:00;992;;;0.7;84.2
12722;BME280;6425;50.316;8.114;2023-04-26T03:36:00;992;;;0.5;85.4
12722;BME280;6425;50.316;8.114;2023-04-26T03:39:00;992;;;0.5;86.1
12722;BME280;6425;50.316;8.114;2023-04-26T03:42:00;992;;;0.4;87
12722;BME280;6425;50.316;8.114;2023-04-26T03:45:00;992;;;0.6;87.2
12722;BME280;6425;50.316;8.114;2023-04-26T03:48:00;992;;;0.6;87
12722;BME280;6425;50.316;8.114;2023-04-26T03:51:00;992;;;0.5;85.4
12722;BME280;6425;50.316;8.114;2023-04-26T03:54:00;992;;;0.6;85.1
12722;BME280;6425;50.316;8.114;2023-04-26T03:57:00;992;;;0.6;84.8
12722;BME280;6425;50.316;8.114;2023-04-26T04:00:00;992;;;0.5;85.4
12722;BME280;6425;50.316;8.114;2023-04-26T04:03:00;992;;;0.7;85.7
12722;BME280;6425;50.316;8.114;2023-04-26T04:06:00;992;;;0.6;85.6
12722;BME280;6425;50.316;8.114;2023-04-26T04:09:00;992;;;0.5;85.9
12722;BME280;6425;50.316;8.114;2023-04-26T04:12:00;992;;;0.6;86.5
12722;BME280;6425;50.316;8.114;2023-04-26T04:15:00;992;;;0.6;86.4
12722;BME280;6425;50.316;8.114;2023-04-26T04:18:00;992;;;0.4;87.1
12722;BME280;6425;50.316;8.114;2023-04-26T04:21:00;992;;;0.4;87.4
12722;BME280;6425;50.316;8.114;2023-04-26T04:24:00;992;;;0.4;87.7
12722;BME280;6425;50.316;8.114;2023-04-26T04:27:00;992;;;0.6;87.9
12722;BME280;6425;50.316;8.114;2023-04-26T04:30:00;992;;;0.8;87
12722;BME280;6425;50.316;8.114;2023-04-26T04:33:00;992;;;0.9;86.6
12722;BME280;6425;50.316;8.114;2023-04-26T04:36:00;992;;;1;85.9
12722;BME280;6425;50.316;8.114;2023-04-26T04:39:00;992;;;1.1;85.1
12722;BME280;6425;50.316;8.114;2023-04-26T04:42:00;992;;;1.1;84.2
12722;BME280;6425;50.316;8.114;2023-04-26T04:45:00;992;;;1.1;83.9
12722;BME280;6425;50.316;8.114;2023-04-26T04:48:00;992;;;1.1;84
12722;BME280;6425;50.316;8.114;2023-04-26T04:51:00;992;;;1.1;84.3
12722;BME280;6425;50.316;8.114;2023-04-26T04:54:07;992;;;1.2;84.8
12722;BME280;6425;50.316;8.114;2023-04-26T04:57:00;992;;;1.4;85.5
12722;BME280;6425;50.316;8.114;2023-04-26T05:00:00;992;;;1.9;86.1
12722;BME280;6425;50.316;8.114;2023-04-26T05:03:00;992;;;2.4;84.4
12722;BME280;6425;50.316;8.114;2023-04-26T05:06:00;992;;;2.8;81.8
12722;BME280;6425;50.316;8.114;2023-04-26T05:09:00;992;;;3.2;77.9
12722;BME280;6425;50.316;8.114;2023-04-26T05:12:00;992;;;2.5;77.2
12722;BME280;6425;50.316;8.114;2023-04-26T05:15:00;992;;;1.8;79.4
12722;BME280;6425;50.316;8.114;2023-04-26T05:18:00;992;;;1.7;81.3
12722;BME280;6425;50.316;8.114;2023-04-26T05:21:00;992;;;1.9;82.1
12722;BME280;6425;50.316;8.114;2023-04-26T05:24:00;992;;;2.5;82.4
12722;BME280;6425;50.316;8.114;2023-04-26T05:27:00;992;;;3.3;81.7
12722;BME280;6425;50.316;8.114;2023-04-26T05:30:00;992;;;3.8;80
12722;BME280;6425;50.316;8.114;2023-04-26T05:33:00;992;;;4.2;77.9
12722;BME280;6425;50.316;8.114;2023-04-26T05:36:00;992;;;4.9;73.4
12722;BME280;6425;50.316;8.114;2023-04-26T05:39:00;992;;;5.6;69
12722;BME280;6425;50.316;8.114;2023-04-26T05:42:00;992;;;5.9;66.5
12722;BME280;6425;50.316;8.114;2023-04-26T05:45:00;992;;;5.9;65.8
12722;BME280;6425;50.316;8.114;2023-04-26T05:48:00;992;;;5.7;66.7
12722;BME280;6425;50.316;8.114;2023-04-26T05:51:00;992;;;5.7;68.7
12722;BME280;6425;50.316;8.114;2023-04-26T05:54:00;992;;;6.2;65.8
12722;BME280;6425;50.316;8.114;2023-04-26T05:57:00;992;;;6.5;64.5
12722;BME280;6425;50.316;8.114;2023-04-26T06:00:00;992;;;6.8;63.9
12722;BME280;6425;50.316;8.114;2023-04-26T06:03:00;992;;;7;62.7
12722;BME280;6425;50.316;8.114;2023-04-26T06:06:00;992;;;7.1;62.8
12722;BME280;6425;50.316;8.114;2023-04-26T06:09:00;993;;;7.3;62.1
12722;BME280;6425;50.316;8.114;2023-04-26T06:12:00;993;;;7.5;62.2
12722;BME280;6425;50.316;8.114;2023-04-26T06:15:00;993;;;7.7;60.8
12722;BME280;6425;50.316;8.114;2023-04-26T06:18:00;993;;;7.9;61
12722;BME280;6425;50.316;8.114;2023-04-26T06:21:00;993;;;8.2;58.9
12722;BME280;6425;50.316;8.114;2023-04-26T06:24:00;993;;;8.2;59.2
12722;BME280;6425;50.316;8.114;2023-04-26T06:27:00;993;;;8.1;59.3
12722;BME280;6425;50.316;8.114;2023-04-26T06:30:00;993;;;8.1;59.7
12722;BME280;6425;50.316;8.114;2023-04-26T06:33:00;993;;;8;61.1
12722;BME280;6425;50.316;8.114;2023-04-26T06:36:00;993;;;8.3;60.2
12722;BME280;6425;50.316;8.114;2023-04-26T06:39:00;993;;;8.6;59.1
12722;BME280;6425;50.316;8.114;2023-04-26T06:42:00;993;;;8.8;56.3
12722;BME280;6425;50.316;8.114;2023-04-26T06:45:00;992;;;9;54.3
12722;BME280;6425;50.316;8.114;2023-04-26T06:48:00;993;;;8.9;54.9
12722;BME280;6425;50.316;8.114;2023-04-26T06:51:03;992;;;9.1;53.7
12722;BME280;6425;50.316;8.114;2023-04-26T06:54:00;993;;;8.5;56
12722;BME280;6425;50.316;8.114;2023-04-26T06:57:00;993;;;8.3;56.9
12722;BME280;6425;50.316;8.114;2023-04-26T07:00:00;993;;;8.7;55.2
12722;BME280;6425;50.316;8.114;2023-04-26T07:03:00;993;;;8.7;56.1
12722;BME280;6425;50.316;8.114;2023-04-26T07:06:00;993;;;8.9;57.1
12722;BME280;6425;50.316;8.114;2023-04-26T07:09:00;993;;;8.7;56.1
12722;BME280;6425;50.316;8.114;2023-04-26T07:12:00;993;;;7.9;58.2
12722;BME280;6425;50.316;8.114;2023-04-26T07:15:00;993;;;7.5;59.3
12722;BME280;6425;50.316;8.114;2023-04-26T07:18:00;993;;;7.6;60.6
12722;BME280;6425;50.316;8.114;2023-04-26T07:21:00;993;;;7;62.1
12722;BME280;6425;50.316;8.114;2023-04-26T07:24:00;993;;;7.2;61.7
12722;BME280;6425;50.316;8.114;2023-04-26T07:27:00;993;;;7;63.8
12722;BME280;6425;50.316;8.114;2023-04-26T07:30:00;993;;;7.5;61.2
12722;BME280;6425;50.316;8.114;2023-04-26T07:33:00;993;;;7.5;59.2
12722;BME280;6425;50.316;8.114;2023-04-26T07:36:00;993;;;7.1;58.7
12722;BME280;6425;50.316;8.114;2023-04-26T07:39:00;993;;;7.2;59.3
12722;BME280;6425;50.316;8.114;2023-04-26T07:42:00;993;;;7.7;58.2
12722;BME280;6425;50.316;8.114;2023-04-26T07:45:00;993;;;8.5;56.3
12722;BME280;6425;50.316;8.114;2023-04-26T07:48:00;993;;;9.1;55.2
12722;BME280;6425;50.316;8.114;2023-04-26T07:51:05;993;;;9.3;53.4
12722;BME280;6425;50.316;8.114;2023-04-26T07:54:00;993;;;8.9;54.7
12722;BME280;6425;50.316;8.114;2023-04-26T07:57:00;993;;;9.2;54.2
12722;BME280;6425;50.316;8.114;2023-04-26T08:00:00;993;;;9.4;53.9
12722;BME280;6425;50.316;8.114;2023-04-26T08:03:00;993;;;8.3;56.8
12722;BME280;6425;50.316;8.114;2023-04-26T08:06:00;993;;;7.6;59.4
12722;BME280;6425;50.316;8.114;2023-04-26T08:09:00;993;;;8.2;56.9
12722;BME280;6425;50.316;8.114;2023-04-26T08:12:00;992;;;8.4;56
12722;BME280;6425;50.316;8.114;2023-04-26T08:15:00;993;;;9.1;54.4
12722;BME280;6425;50.316;8.114;2023-04-26T08:18:00;993;;;8.9;54.9
12722;BME280;6425;50.316;8.114;2023-04-26T08:21:00;993;;;8.6;54.6
12722;BME280;6425;50.316;8.114;2023-04-26T08:24:00;993;;;8.7;54.4
12722;BME280;6425;50.316;8.114;2023-04-26T08:27:00;993;;;8.2;55
12722;BME280;6425;50.316;8.114;2023-04-26T08:30:00;993;;;8.2;55.2
12722;BME280;6425;50.316;8.114;2023-04-26T08:33:00;993;;;8.1;55.5
12722;BME280;6425;50.316;8.114;2023-04-26T08:36:00;992;;;9.2;53.4
12722;BME280;6425;50.316;8.114;2023-04-26T08:39:00;992;;;9;51.5
12722;BME280;6425;50.316;8.114;2023-04-26T08:42:12;993;;;8.9;51.8
12722;BME280;6425;50.316;8.114;2023-04-26T08:45:00;993;;;8.8;53
12722;BME280;6425;50.316;8.114;2023-04-26T08:48:00;992;;;9.5;51
12722;BME280;6425;50.316;8.114;2023-04-26T08:51:00;992;;;10.6;49.2
12722;BME280;6425;50.316;8.114;2023-04-26T08:54:00;992;;;10.8;47
12722;BME280;6425;50.316;8.114;2023-04-26T08:57:00;992;;;10.1;47.4
12722;BME280;6425;50.316;8.114;2023-04-26T09:00:00;992;;;9.6;48.7
12722;BME280;6425;50.316;8.114;2023-04-26T09:03:00;992;;;9.1;51.4
12722;BME280;6425;50.316;8.114;2023-04-26T09:06:00;992;;;10;49.3
12722;BME280;6425;50.316;8.114;2023-04-26T09:09:00;992;;;10.6;46.9
12722;BME280;6425;50.316;8.114;2023-04-26T09:12:00;992;;;10.8;46.1
12722;BME280;6425;50.316;8.114;2023-04-26T09:15:00;992;;;11.3;45.4
12722;BME280;6425;50.316;8.114;2023-04-26T09:18:14;992;;;11.2;45.4
12722;BME280;6425;50.316;8.114;2023-04-26T09:21:01;992;;;9.6;46.5
12722;BME280;6425;50.316;8.114;2023-04-26T09:24:00;992;;;10;46.7
12722;BME280;6425;50.316;8.114;2023-04-26T09:27:00;992;;;10.2;46.4
12722;BME280;6425;50.316;8.114;2023-04-26T09:30:02;992;;;10.6;47
12722;BME280;6425;50.316;8.114;2023-04-26T09:33:00;992;;;11.2;45.9
12722;BME280;6425;50.316;8.114;2023-04-26T09:36:09;992;;;11.4;46.2
12722;BME280;6425;50.316;8.114;2023-04-26T09:39:00;992;;;10.2;46.4
12722;BME280;6425;50.316;8.114;2023-04-26T09:42:00;992;;;8.6;49.3
12722;BME280;6425;50.316;8.114;2023-04-26T09:45:04;992;;;7.5;52
12722;BME280;6425;50.316;8.114;2023-04-26T09:48:11;992;;;7.8;52.5
12722;BME280;6425;50.316;8.114;2023-04-26T09:51:07;992;;;8.4;52.2
12722;BME280;6425;50.316;8.114;2023-04-26T09:54:00;992;;;9;49
12722;BME280;6425;50.316;8.114;2023-04-26T09:57:00;992;;;9.1;49.2
12722;BME280;6425;50.316;8.114;2023-04-26T10:00:00;992;;;9.9;48
12722;BME280;6425;50.316;8.114;2023-04-26T10:03:00;992;;;9.8;47
12722;BME280;6425;50.316;8.114;2023-04-26T10:06:00;992;;;9.4;47.9
12722;BME280;6425;50.316;8.114;2023-04-26T10:09:00;992;;;9.1;49.1
12722;BME280;6425;50.316;8.114;2023-04-26T10:12:00;992;;;10.2;46.4
12722;BME280;6425;50.316;8.114;2023-04-26T10:15:00;992;;;10.8;45.3
12722;BME280;6425;50.316;8.114;2023-04-26T10:18:00;992;;;10.7;45.2
12722;BME280;6425;50.316;8.114;2023-04-26T10:21:01;992;;;10.8;45.2
12722;BME280;6425;50.316;8.114;2023-04-26T10:24:00;992;;;11.4;44.6
12722;BME280;6425;50.316;8.114;2023-04-26T10:27:00;992;;;10.5;45.7
12722;BME280;6425;50.316;8.114;2023-04-26T10:30:07;992;;;9.2;48
12722;BME280;6425;50.316;8.114;2023-04-26T10:33:10;992;;;8.7;48.6
12722;BME280;6425;50.316;8.114;2023-04-26T10:36:01;992;;;9.7;47.9
12722;BME280;6425;50.316;8.114;2023-04-26T10:39:31;992;;;9.6;46.5
12722;BME280;6425;50.316;8.114;2023-04-26T10:42:31;992;;;9.9;45.5
12722;BME280;6425;50.316;8.114;2023-04-26T10:45:00;992;;;9.9;45.5
12722;BME280;6425;50.316;8.114;2023-04-26T10:48:12;992;;;10.6;44.1
12722;BME280;6425;50.316;8.114;2023-04-26T10:51:07;992;;;9;46.7
12722;BME280;6425;50.316;8.114;2023-04-26T10:54:00;992;;;9.3;47.4
12722;BME280;6425;50.316;8.114;2023-04-26T10:57:00;992;;;9.1;47.8
12722;BME280;6425;50.316;8.114;2023-04-26T11:00:16;992;;;9.2;46.5
12722;BME280;6425;50.316;8.114;2023-04-26T11:03:02;992;;;10.2;44.6
12722;BME280;6425;50.316;8.114;2023-04-26T11:06:04;992;;;11.3;43.2
12722;BME280;6425;50.316;8.114;2023-04-26T11:09:00;992;;;12;40.8
12722;BME280;6425;50.316;8.114;2023-04-26T11:12:00;992;;;12.2;40.7
12722;BME280;6425;50.316;8.114;2023-04-26T11:15:00;992;;;12.3;41.5
12722;BME280;6425;50.316;8.114;2023-04-26T11:18:00;992;;;11.9;40.7
12722;BME280;6425;50.316;8.114;2023-04-26T11:21:00;992;;;12.3;41.1
12722;BME280;6425;50.316;8.114;2023-04-26T11:24:00;992;;;13;40.6
12722;BME280;6425;50.316;8.114;2023-04-26T11:27:00;992;;;12.7;40.6
12722;BME280;6425;50.316;8.114;2023-04-26T11:30:01;992;;;12.2;40.2
12722;BME280;6425;50.316;8.114;2023-04-26T11:33:00;992;;;11.4;40.8
12722;BME280;6425;50.316;8.114;2023-04-26T11:36:00;992;;;10.4;43.7
12722;BME280;6425;50.316;8.114;2023-04-26T11:39:00;991;;;10.6;43.4
12722;BME280;6425;50.316;8.114;2023-04-26T11:42:03;991;;;9.2;46.6
12722;BME280;6425;50.316;8.114;2023-04-26T11:45:00;992;;;9.3;45.8
12722;BME280;6425;50.316;8.114;2023-04-26T11:48:00;991;;;10.3;45.7
12722;BME280;6425;50.316;8.114;2023-04-26T11:51:01;991;;;11;44.4
12722;BME280;6425;50.316;8.114;2023-04-26T11:54:00;991;;;11.6;42.3
12722;BME280;6425;50.316;8.114;2023-04-26T11:57:00;991;;;12.7;41
12722;BME280;6425;50.316;8.114;2023-04-26T12:00:08;991;;;13.1;38.8
12722;BME280;6425;50.316;8.114;2023-04-26T12:03:03;991;;;13.1;38.5
12722;BME280;6425;50.316;8.114;2023-04-26T12:06:00;991;;;13;38
12722;BME280;6425;50.316;8.114;2023-04-26T12:09:00;991;;;12.4;39.8
12722;BME280;6425;50.316;8.114;2023-04-26T12:12:00;992;;;11.8;40.5
12722;BME280;6425;50.316;8.114;2023-04-26T12:15:00;991;;;11.8;39.8
12722;BME280;6425;50.316;8.114;2023-04-26T12:18:04;991;;;11.9;39.9
12722;BME280;6425;50.316;8.114;2023-04-26T12:21:00;991;;;12.5;39.8
12722;BME280;6425;50.316;8.114;2023-04-26T12:24:00;991;;;12.3;39.2
12722;BME280;6425;50.316;8.114;2023-04-26T12:27:00;991;;;11.9;40.1
12722;BME280;6425;50.316;8.114;2023-04-26T12:30:00;991;;;11.6;40.4
12722;BME280;6425;50.316;8.114;2023-04-26T12:33:00;991;;;11.6;40.5
12722;BME280;6425;50.316;8.114;2023-04-26T12:36:04;991;;;11.5;39.4
12722;BME280;6425;50.316;8.114;2023-04-26T12:39:00;991;;;11.7;40.7
12722;BME280;6425;50.316;8.114;2023-04-26T12:42:00;991;;;12.8;39.7
12722;BME280;6425;50.316;8.114;2023-04-26T12:45:00;991;;;13.2;36.8
12722;BME280;6425;50.316;8.114;2023-04-26T12:48:00;991;;;12.3;38.9
12722;BME280;6425;50.316;8.114;2023-04-26T12:51:00;991;;;13.2;37.9
12722;BME280;6425;50.316;8.114;2023-04-26T12:54:00;991;;;13.4;37.5
12722;BME280;6425;50.316;8.114;2023-04-26T12:57:00;991;;;13.6;36.5
12722;BME280;6425;50.316;8.114;2023-04-26T13:00:00;991;;;13.8;36.6
12722;BME280;6425;50.316;8.114;2023-04-26T13:03:00;991;;;14.3;34.8
12722;BME280;6425;50.316;8.114;2023-04-26T13:06:00;991;;;15;34.4
12722;BME280;6425;50.316;8.114;2023-04-26T13:09:00;991;;;15.9;33.7
12722;BME280;6425;50.316;8.114;2023-04-26T13:12:00;991;;;16.1;33.8
12722;BME280;6425;50.316;8.114;2023-04-26T13:15:00;991;;;14.9;34.3
12722;BME280;6425;50.316;8.114;2023-04-26T13:18:00;991;;;13.6;34.8
12722;BME280;6425;50.316;8.114;2023-04-26T13:21:00;991;;;13.2;35.6
12722;BME280;6425;50.316;8.114;2023-04-26T13:24:00;991;;;12.6;38.5
12722;BME280;6425;50.316;8.114;2023-04-26T13:27:00;991;;;12.6;38.4
12722;BME280;6425;50.316;8.114;2023-04-26T13:30:00;991;;;12.5;38.6
12722;BME280;6425;50.316;8.114;2023-04-26T13:33:00;991;;;12.8;37.7
12722;BME280;6425;50.316;8.114;2023-04-26T13:36:00;991;;;12.5;37.9
12722;BME280;6425;50.316;8.114;2023-04-26T13:39:00;991;;;12.4;37.8
12722;BME280;6425;50.316;8.114;2023-04-26T13:42:00;991;;;11.9;37.4
12722;BME280;6425;50.316;8.114;2023-04-26T13:45:00;991;;;12.4;36.4
12722;BME280;6425;50.316;8.114;2023-04-26T13:48:00;991;;;13.1;36
12722;BME280;6425;50.316;8.114;2023-04-26T13:51:00;991;;;14.2;35
12722;BME280;6425;50.316;8.114;2023-04-26T13:54:00;991;;;15.1;33
12722;BME280;6425;50.316;8.114;2023-04-26T13:57:00;991;;;13.8;35.8
12722;BME280;6425;50.316;8.114;2023-04-26T14:00:00;991;;;14.3;34.9
12722;BME280;6425;50.316;8.114;2023-04-26T14:03:00;991;;;12.8;38.1
12722;BME280;6425;50.316;8.114;2023-04-26T14:06:00;991;;;12.3;37.5
12722;BME280;6425;50.316;8.114;2023-04-26T14:09:00;991;;;12;36.4
12722;BME280;6425;50.316;8.114;2023-04-26T14:12:00;991;;;12.2;37.2
12722;BME280;6425;50.316;8.114;2023-04-26T14:15:00;991;;;12.2;39.4
12722;BME280;6425;50.316;8.114;2023-04-26T14:18:00;991;;;12.7;38
12722;BME280;6425;50.316;8.114;2023-04-26T14:21:00;991;;;12.7;35.4
12722;BME280;6425;50.316;8.114;2023-04-26T14:24:00;991;;;12.3;35.7
12722;BME280;6425;50.316;8.114;2023-04-26T14:27:00;991;;;12.2;37.3
12722;BME280;6425;50.316;8.114;2023-04-26T14:30:00;991;;;12.9;38.1
12722;BME280;6425;50.316;8.114;2023-04-26T14:33:00;991;;;12.6;37.4
12722;BME280;6425;50.316;8.114;2023-04-26T14:36:00;991;;;12.6;37.4
12722;BME280;6425;50.316;8.114;2023-04-26T14:39:00;991;;;13.7;37.1
12722;BME280;6425;50.316;8.114;2023-04-26T14:42:00;991;;;14.5;35.5
12722;BME280;6425;50.316;8.114;2023-04-26T14:45:00;991;;;13.9;35.9
12722;BME280;6425;50.316;8.114;2023-04-26T14:48:00;991;;;13.3;37.7
12722;BME280;6425;50.316;8.114;2023-04-26T14:51:00;991;;;13.3;37.9
12722;BME280;6425;50.316;8.114;2023-04-26T14:54:00;991;;;13.2;38.2
12722;BME280;6425;50.316;8.114;2023-04-26T14:57:00;991;;;13.3;36.8
12722;BME280;6425;50.316;8.114;2023-04-26T15:00:00;991;;;12.5;38
12722;BME280;6425;50.316;8.114;2023-04-26T15:03:00;991;;;12.7;35.9
12722;BME280;6425;50.316;8.114;2023-04-26T15:06:00;991;;;11.8;38
12722;BME280;6425;50.316;8.114;2023-04-26T15:09:00;991;;;11.9;38
12722;BME280;6425;50.316;8.114;2023-04-26T15:12:00;991;;;11.8;38
12722;BME280;6425;50.316;8.114;2023-04-26T15:15:00;991;;;12.3;38.9
12722;BME280;6425;50.316;8.114;2023-04-26T15:18:00;991;;;13.1;37.2
12722;BME280;6425;50.316;8.114;2023-04-26T15:21:00;991;;;13.4;37.3
12722;BME280;6425;50.316;8.114;2023-04-26T15:24:00;990;;;13.8;36.8
12722;BME280;6425;50.316;8.114;2023-04-26T15:27:00;990;;;12.8;36.5
12722;BME280;6425;50.316;8.114;2023-04-26T15:30:00;991;;;12.9;36.5
12722;BME280;6425;50.316;8.114;2023-04-26T15:33:00;991;;;13.4;36.1
12722;BME280;6425;50.316;8.114;2023-04-26T15:36:00;991;;;13.9;35.2
12722;BME280;6425;50.316;8.114;2023-04-26T15:39:00;991;;;14.2;34.1
12722;BME280;6425;50.316;8.114;2023-04-26T15:42:00;991;;;14.6;33.7
12722;BME280;6425;50.316;8.114;2023-04-26T15:45:00;990;;;14.5;34
12722;BME280;6425;50.316;8.114;2023-04-26T15:48:00;990;;;13.3;34.6
12722;BME280;6425;50.316;8.114;2023-04-26T15:51:03;991;;;12.9;35.9
12722;BME280;6425;50.316;8.114;2023-04-26T15:54:00;991;;;12.6;36.2
12722;BME280;6425;50.316;8.114;2023-04-26T15:57:00;990;;;12.5;36.6
12722;BME280;6425;50.316;8.114;2023-04-26T16:00:00;990;;;13.4;35.6
12722;BME280;6425;50.316;8.114;2023-04-26T16:03:00;990;;;13.2;37.1
12722;BME280;6425;50.316;8.114;2023-04-26T16:06:00;990;;;12.8;36.9
12722;BME280;6425;50.316;8.114;2023-04-26T16:09:00;990;;;12.1;38.8
12722;BME280;6425;50.316;8.114;2023-04-26T16:12:00;990;;;12.3;39.6
12722;BME280;6425;50.316;8.114;2023-04-26T16:15:00;990;;;12.7;38.4
12722;BME280;6425;50.316;8.114;2023-04-26T16:18:00;990;;;12.8;37.7
12722;BME280;6425;50.316;8.114;2023-04-26T16:21:03;990;;;12.3;38.4
12722;BME280;6425;50.316;8.114;2023-04-26T16:24:00;990;;;12;38.4
12722;BME280;6425;50.316;8.114;2023-04-26T16:27:00;990;;;11.8;39.4
12722;BME280;6425;50.316;8.114;2023-04-26T16:30:00;990;;;12;39.7
12722;BME280;6425;50.316;8.114;2023-04-26T16:33:00;990;;;11.9;41.1
12722;BME280;6425;50.316;8.114;2023-04-26T16:36:00;990;;;11.5;41.5
12722;BME280;6425;50.316;8.114;2023-04-26T16:39:00;990;;;11.6;41.4
12722;BME280;6425;50.316;8.114;2023-04-26T16:42:00;990;;;11.7;41
12722;BME280;6425;50.316;8.114;2023-04-26T16:45:00;990;;;11.8;40.6
12722;BME280;6425;50.316;8.114;2023-04-26T16:48:00;990;;;11.7;40.4
12722;BME280;6425;50.316;8.114;2023-04-26T16:51:00;990;;;12.1;40.3
12722;BME280;6425;50.316;8.114;2023-04-26T16:54:00;990;;;12.6;38.6
12722;BME280;6425;50.316;8.114;2023-04-26T16:57:00;990;;;12.7;38.5
12722;BME280;6425;50.316;8.114;2023-04-26T17:00:00;990;;;12.4;38.9
12722;BME280;6425;50.316;8.114;2023-04-26T17:03:00;990;;;12.6;37.7
12722;BME280;6425;50.316;8.114;2023-04-26T17:06:00;990;;;12.7;37.5
12722;BME280;6425;50.316;8.114;2023-04-26T17:09:00;990;;;12.7;36.8
12722;BME280;6425;50.316;8.114;2023-04-26T17:12:00;990;;;12.8;37.7
12722;BME280;6425;50.316;8.114;2023-04-26T17:15:00;990;;;13.2;36.6
12722;BME280;6425;50.316;8.114;2023-04-26T17:18:00;990;;;13.2;36.9
12722;BME280;6425;50.316;8.114;2023-04-26T17:21:00;990;;;12.5;38
12722;BME280;6425;50.316;8.114;2023-04-26T17:24:00;990;;;12.1;38.5
12722;BME280;6425;50.316;8.114;2023-04-26T17:27:00;990;;;11.6;39.1
12722;BME280;6425;50.316;8.114;2023-04-26T17:30:00;990;;;11.5;39.2
12722;BME280;6425;50.316;8.114;2023-04-26T17:33:00;990;;;11.7;39.6
12722;BME280;6425;50.316;8.114;2023-04-26T17:36:00;990;;;12;39.6
12722;BME280;6425;50.316;8.114;2023-04-26T17:39:00;990;;;11.8;40
12722;BME280;6425;50.316;8.114;2023-04-26T17:42:00;990;;;11.6;40.8
12722;BME280;6425;50.316;8.114;2023-04-26T17:45:00;990;;;11.5;40.5
12722;BME280;6425;50.316;8.114;2023-04-26T17:48:00;991;;;11.3;41.4
12722;BME280;6425;50.316;8.114;2023-04-26T17:51:00;991;;;11.2;41.9
12722;BME280;6425;50.316;8.114;2023-04-26T17:54:00;991;;;11.1;41.9
12722;BME280;6425;50.316;8.114;2023-04-26T17:57:00;991;;;11.3;42.3
12722;BME280;6425;50.316;8.114;2023-04-26T18:00:00;991;;;11.2;42.3